KDNN/DNN METAR and TAF weather

Enter ICAO airport designator
Station Type Date Time Source
KDNN METAR 2021/10/24 21:35 UTC NOAA

KDNN 242135Z AUTO 00000KT 10SM CLR 22/13 A3008 RMK AO2


Station Type Date Time Source
KDNN Decoded METAR 2021/10/24 21:35 UTC NOAA

Dalton, Dalton Municipal Airport, GA, United States (KDNN) 34-43-18N 084-52-09W
Oct 24, 2021 - 05:35 PM EDT / 2021.10.24 2135 UTC
Wind: Calm:0
Visibility: 10 mile(s):0
Sky conditions: clear
Temperature: 71 F (22 C)
Dew Point: 55 F (13 C)
Relative Humidity: 56%
Pressure (altimeter): 30.08 in. Hg (1018 hPa)
ob: KDNN 242135Z AUTO 00000KT 10SM CLR 22/13 A3008 RMK AO2
cycle: 21

Station Type Date Time Source
KDNN TAF UTC NOAA

Error!

Example: see airport list